• Join FlightAware (Why Join?)
  • Login
  • US Flag 
05:05PM EDT


 

Airport Tracker/Info


-or-


 

Live Flight TrackerFlight Track Log ✈ JBU1329 ✈ 19-Jun-2013 ✈ KBOS - KBWI

Flight Track Log - Related Links

Times and Time Zones

All times are in EDT time to prevent confusion due to time zone crossing. See the JBU1329 flight status page for this flight to view local times or setup timezone preferences in your user account.

Time Position Orientation Groundspeed Altitude Reporting Facility
EDT Latitude Longitude Course Direction KTS MPH feet Rate Location/Type
09:09AM 42.3667 -70.9667 270° West 154 177 800  Level KA90
09:10AM 42.3667 -70.9167 90° East 158 182 2,300 2,220 Climbing KA90
09:11AM 42.3833 -70.8500 71° East 211 243 5,100 2,460 Climbing KA90
09:11AM 42.3928 -70.8011 75° East 251 289 6,000 2,640 Climbing Boston Center
09:12AM 42.2850 -70.7392 228° Southwest  Level FlightAware Approximate
09:12AM 42.3478 -70.7236 128° Southeast 298 343 9,100  Level Boston Center
09:13AM 42.2221 -70.8429 240° Southwest  Level FlightAware Approximate
09:13AM 42.2628 -70.7428 189° South 243 280 11,100  Level Boston Center
09:14AM 42.1833 -70.9632 270° West  Level FlightAware Approximate
09:14AM 42.2142 -70.8536 239° Southwest 240 276 14,100  Level Boston Center
09:15AM 42.1992 -70.9772 261° West 273 314 16,700 2,460 Climbing Boston Center
09:16AM 42.1819 -71.1064 260° West 314 361 19,100 2,280 Climbing Boston Center
09:17AM 42.1647 -71.2358 260° West 347 399 21,300 2,400 Climbing Boston Center
09:18AM 42.1453 -71.3678 259° West 360 414 23,900 2,280 Climbing Boston Center
09:19AM 42.1236 -71.5108 259° West 355 409 25,900 1,500 Climbing Boston Center
09:20AM 42.1017 -71.6369 257° West 355 409 27,000 540 Climbing Boston Center
09:21AM 42.0817 -71.7717 259° West 360 414 27,000 300 Level Boston Center
09:22AM 42.0636 -71.9003 259° West 360 414 27,700 1,080 Climbing Boston Center
09:23AM 42.0308 -72.0264 251° West 360 414 29,200 1,560 Climbing Boston Center
09:24AM 41.9769 -72.1358 237° Southwest 355 409 30,900 1,380 Climbing Boston Center
09:25AM 41.9250 -72.2475 238° Southwest 355 409 32,000 540 Climbing Boston Center
09:26AM 41.8711 -72.3647 238° Southwest 365 420 32,000  Level Boston Center
09:27AM 41.8147 -72.4819 237° Southwest 371 427 32,000  Level Boston Center
09:28AM 41.7583 -72.5986 237° Southwest 371 427 32,000  Level Boston Center
09:30AM 41.7074 -72.6808 230° Southwest  Level FlightAware Approximate
09:30AM 41.6517 -72.8206 230° Southwest 371 427 32,000  Level Boston Center
09:32AM 41.5864 -72.9592 238° Southwest 371 427 32,000  Level Boston Center
09:33AM 41.5275 -73.0833 238° Southwest 371 427 32,000  Level Boston Center
09:34AM 41.4725 -73.1992 238° Southwest 371 427 32,000  Level Boston Center
09:35AM 41.4111 -73.3175 235° Southwest 371 427 32,000  Level Boston Center
09:36AM 41.3239 -73.5008 238° Southwest 372 428 32,000  Level New York Center
09:37AM 41.2628 -73.6142 234° Southwest 372 428 32,000  Level New York Center
09:38AM 41.1997 -73.7244 233° Southwest 372 428 32,000  Level New York Center
09:39AM 41.1344 -73.8344 232° Southwest 378 435 32,000  Level New York Center
09:40AM 41.0692 -73.9417 231° Southwest 383 441 32,000  Level New York Center
09:41AM 41.0036 -74.0486 231° Southwest 383 441 32,000  Level New York Center
09:42AM 40.9400 -74.1608 233° Southwest 383 441 32,000 -1,020 Level New York Center
09:43AM 40.8639 -74.2750 229° Southwest 383 441 30,000 -1,980 Descending New York Center
09:44AM 40.8022 -74.3814 233° Southwest 388 447 28,100 -1,020 Descending New York Center
09:45AM 40.7386 -74.4847 231° Southwest 382 440 28,000 -360 Descending New York Center
09:46AM 40.6650 -74.5739 223° Southwest 377 434 27,500 -780 Descending New York Center
09:47AM 40.5733 -74.6397 209° Southwest 370 426 26,500 -1,020 Descending New York Center
09:48AM 40.5014 -74.7314 224° Southwest 370 426 25,500 -1,080 Descending New York Center
09:49AM 40.4417 -74.8369 233° Southwest 364 419 24,500 -1,020 Descending New York Center
09:50AM 40.3817 -74.9425 233° Southwest 369 425 23,500 -1,020 Descending New York Center
09:51AM 40.3217 -75.0478 233° Southwest 369 425 22,500 -1,200 Descending New York Center
09:52AM 40.2614 -75.1528 233° Southwest 369 425 21,100 -1,500 Descending New York Center
09:53AM 40.2033 -75.2578 234° Southwest 369 425 19,600 -1,500 Descending New York Center
09:54AM 40.1456 -75.3517 231° Southwest 374 430 18,200 -840 Descending New York Center
09:55AM 40.0706 -75.4581 227° Southwest 369 425 18,000 -120 Descending New York Center
09:56AM 40.0039 -75.5539 228° Southwest 363 418 18,000 -300 Level New York Center
09:57AM 39.9358 -75.6439 225° Southwest 355 409 17,400 -900 Descending New York Center
09:58AM 39.8792 -75.7483 235° Southwest 361 415 16,300 -1,200 Descending New York Center
09:59AM 39.8247 -75.8497 235° Southwest 355 409 15,000 -1,500 Descending New York Center
10:01AM 39.7167 -76.0500 235° Southwest 336 387 12,000 -1,080 Descending Potomac TRACON
10:02AM 39.6833 -76.1333 243° Southwest 289 333 12,000 -240 Level Potomac TRACON
10:03AM 39.6333 -76.2333 237° Southwest 291 335 11,600 -720 Descending Potomac TRACON
10:04AM 39.5833 -76.3167 232° Southwest 281 323 10,600 -1,020 Descending Potomac TRACON
10:05AM 39.5333 -76.4000 232° Southwest 280 322 9,600 -1,320 Descending Potomac TRACON
10:06AM 39.4833 -76.4833 232° Southwest 281 323 8,000 -1,620 Descending Potomac TRACON
10:07AM 39.4333 -76.5500 226° Southwest 288 331 6,400 -1,500 Descending Potomac TRACON
10:08AM 39.3667 -76.5000 150° Southeast 292 336 5,000 -1,200 Descending Potomac TRACON
10:09AM 39.3167 -76.4333 134° Southeast 280 322 4,000 -540 Descending Potomac TRACON
10:10AM 39.2500 -76.3667 142° Southeast 281 323 4,000  Level Potomac TRACON
10:11AM 39.1833 -76.3500 169° South 285 328 4,000  Level Potomac TRACON
10:12AM 39.1000 -76.4000 205° Southwest 282 325 4,000  Level Potomac TRACON
10:13AM 39.0500 -76.4500 218° Southwest 247 284 4,000 -480 Level Potomac TRACON
10:14AM 39.0333 -76.5167 252° West 223 257 3,100 -780 Descending Potomac TRACON
10:15AM 39.0667 -76.5667 311° West 205 236 2,500 -900 Descending Potomac TRACON
10:16AM 39.1167 -76.6167 322° Northwest 182 209 1,400 -900 Descending Potomac TRACON
10:17AM 39.1500 -76.6500 322° Northwest 132 152 700 -720 Descending Potomac TRACON